CheckWX is a tool to help pilots better visualize weather data.  It is not intended as a substitute for an official pre-flight weather briefing.

06:47:27 UTC

UTAM TAF
Mary Airport
Mary, Turkmenistan
TAF UTAM 170430Z 1706/1806 07016KT CAVOK 530009 TEMPO 1706/1713 12014G24KT 3000 DRDU SCT050 BECMG 1713/1715 02012KT 6000 NSC

Jun-17@
06:00 UTC

Jun-17 @ 06:00 UTC

Jun-17@
13:00 UTC

Jun-17 @ 13:00 UTC

TAF UTAM 170430Z 1706/1806 07016KT CAVOK 530009
Wind
  • 070° at 16 KTS
Conditions
No significant weather
Cloud Levels
  • No significant clouds
Turbulence
< Frequent moderate clear air turbulence expected at the surface extending to 9,000' AGL

Jun-17@
06:00 UTC

Jun-17 @ 06:00 UTC

Jun-17@
13:00 UTC

Jun-17 @ 13:00 UTC

TEMPO 1706/1713 12014G24KT 3000 DRDU SCT050

Temporary

Temporary Changes expected for less than half the time period

Wind
  • 120° at 14 KTS
  • {Gusting to 24 KTS
Conditions
Low drifting Dust
Cloud Levels
  • Scattered at 5,000' AGL

Jun-17@
13:00 UTC

Jun-17 @ 13:00 UTC

Jun-18@
06:00 UTC

Jun-18 @ 06:00 UTC

BECMG 1713/1715 02012KT 6000 NSC

Becoming

Becoming Conditions expected by Mon, Jun 17, 2019 @ 15:00 UTC

Wind
  • 020° at 12 KTS
Conditions
No significant weather
Cloud Levels
  • No significant clouds